sensor_id;sensor_type;location;lat;lon;timestamp;P1;durP1;ratioP1;P2;durP2;ratioP2
51594;SDS011;37677;53.254;6.594;2022-09-01T00:02:18;3.92;;;1.70;;
51594;SDS011;37677;53.254;6.594;2022-09-01T00:04:45;4.63;;;1.73;;
51594;SDS011;37677;53.254;6.594;2022-09-01T00:07:12;5.13;;;1.92;;
51594;SDS011;37677;53.254;6.594;2022-09-01T00:09:39;3.53;;;1.70;;
51594;SDS011;37677;53.254;6.594;2022-09-01T00:12:05;1.88;;;1.60;;
51594;SDS011;37677;53.254;6.594;2022-09-01T00:14:34;2.30;;;1.90;;
51594;SDS011;37677;53.254;6.594;2022-09-01T00:17:03;2.75;;;1.42;;
51594;SDS011;37677;53.254;6.594;2022-09-01T00:19:31;4.90;;;1.65;;
51594;SDS011;37677;53.254;6.594;2022-09-01T00:21:58;4.68;;;1.80;;
51594;SDS011;37677;53.254;6.594;2022-09-01T00:24:25;2.10;;;1.70;;
51594;SDS011;37677;53.254;6.594;2022-09-01T00:26:52;2.15;;;1.55;;
51594;SDS011;37677;53.254;6.594;2022-09-01T00:29:19;2.50;;;1.63;;
51594;SDS011;37677;53.254;6.594;2022-09-01T00:31:45;4.65;;;1.77;;
51594;SDS011;37677;53.254;6.594;2022-09-01T00:34:11;2.90;;;1.73;;
51594;SDS011;37677;53.254;6.594;2022-09-01T00:36:36;3.72;;;1.90;;
51594;SDS011;37677;53.254;6.594;2022-09-01T00:39:03;2.30;;;1.70;;
51594;SDS011;37677;53.254;6.594;2022-09-01T00:41:30;3.72;;;1.60;;
51594;SDS011;37677;53.254;6.594;2022-09-01T00:43:59;5.00;;;2.30;;
51594;SDS011;37677;53.254;6.594;2022-09-01T00:46:30;2.78;;;1.88;;
51594;SDS011;37677;53.254;6.594;2022-09-01T00:51:35;3.65;;;2.30;;
51594;SDS011;37677;53.254;6.594;2022-09-01T00:54:03;2.70;;;1.92;;
51594;SDS011;37677;53.254;6.594;2022-09-01T00:56:33;3.33;;;2.08;;
51594;SDS011;37677;53.254;6.594;2022-09-01T00:59:02;2.38;;;1.90;;
51594;SDS011;37677;53.254;6.594;2022-09-01T01:01:31;3.83;;;1.98;;
51594;SDS011;37677;53.254;6.594;2022-09-01T01:03:59;2.63;;;1.63;;
51594;SDS011;37677;53.254;6.594;2022-09-01T01:06:26;2.97;;;1.90;;
51594;SDS011;37677;53.254;6.594;2022-09-01T01:08:54;3.17;;;2.22;;
51594;SDS011;37677;53.254;6.594;2022-09-01T01:11:24;1.80;;;1.63;;
51594;SDS011;37677;53.254;6.594;2022-09-01T01:13:53;2.33;;;1.90;;
51594;SDS011;37677;53.254;6.594;2022-09-01T01:16:22;4.18;;;1.83;;
51594;SDS011;37677;53.254;6.594;2022-09-01T01:18:49;2.00;;;1.50;;
51594;SDS011;37677;53.254;6.594;2022-09-01T01:26:47;4.10;;;1.87;;
51594;SDS011;37677;53.254;6.594;2022-09-01T01:29:13;2.60;;;1.98;;
51594;SDS011;37677;53.254;6.594;2022-09-01T01:31:40;3.63;;;1.75;;
51594;SDS011;37677;53.254;6.594;2022-09-01T01:34:05;2.53;;;1.88;;
51594;SDS011;37677;53.254;6.594;2022-09-01T01:36:33;2.30;;;1.80;;
51594;SDS011;37677;53.254;6.594;2022-09-01T01:39:14;3.85;;;1.73;;
51594;SDS011;37677;53.254;6.594;2022-09-01T01:41:53;2.75;;;2.08;;
51594;SDS011;37677;53.254;6.594;2022-09-01T01:44:21;2.28;;;1.85;;
51594;SDS011;37677;53.254;6.594;2022-09-01T01:46:52;2.17;;;1.60;;
51594;SDS011;37677;53.254;6.594;2022-09-01T01:49:20;2.67;;;1.90;;
51594;SDS011;37677;53.254;6.594;2022-09-01T01:51:48;2.67;;;1.83;;
51594;SDS011;37677;53.254;6.594;2022-09-01T01:54:17;2.15;;;1.67;;
51594;SDS011;37677;53.254;6.594;2022-09-01T01:56:43;5.72;;;1.70;;
51594;SDS011;37677;53.254;6.594;2022-09-01T01:59:09;3.00;;;1.80;;
51594;SDS011;37677;53.254;6.594;2022-09-01T02:01:39;2.78;;;1.63;;
51594;SDS011;37677;53.254;6.594;2022-09-01T02:04:07;4.20;;;1.65;;
51594;SDS011;37677;53.254;6.594;2022-09-01T02:06:35;2.20;;;1.70;;
51594;SDS011;37677;53.254;6.594;2022-09-01T02:09:05;4.40;;;2.00;;
51594;SDS011;37677;53.254;6.594;2022-09-01T02:11:31;3.47;;;1.70;;
51594;SDS011;37677;53.254;6.594;2022-09-01T02:13:58;1.65;;;1.55;;
51594;SDS011;37677;53.254;6.594;2022-09-01T02:16:26;2.55;;;1.67;;
51594;SDS011;37677;53.254;6.594;2022-09-01T02:18:54;2.33;;;1.70;;
51594;SDS011;37677;53.254;6.594;2022-09-01T02:21:21;2.58;;;1.60;;
51594;SDS011;37677;53.254;6.594;2022-09-01T02:23:52;3.72;;;1.75;;
51594;SDS011;37677;53.254;6.594;2022-09-01T02:26:29;3.80;;;1.60;;
51594;SDS011;37677;53.254;6.594;2022-09-01T02:28:58;2.60;;;1.60;;
51594;SDS011;37677;53.254;6.594;2022-09-01T02:31:29;3.47;;;1.52;;
51594;SDS011;37677;53.254;6.594;2022-09-01T02:34:04;2.42;;;2.10;;
51594;SDS011;37677;53.254;6.594;2022-09-01T02:36:38;5.32;;;1.80;;
51594;SDS011;37677;53.254;6.594;2022-09-01T02:39:16;2.05;;;1.60;;
51594;SDS011;37677;53.254;6.594;2022-09-01T02:41:45;2.33;;;1.60;;
51594;SDS011;37677;53.254;6.594;2022-09-01T02:44:11;5.32;;;1.65;;
51594;SDS011;37677;53.254;6.594;2022-09-01T02:46:39;3.40;;;1.65;;
51594;SDS011;37677;53.254;6.594;2022-09-01T02:49:11;2.10;;;1.45;;
51594;SDS011;37677;53.254;6.594;2022-09-01T02:51:43;2.63;;;1.77;;
51594;SDS011;37677;53.254;6.594;2022-09-01T02:54:11;1.92;;;1.67;;
51594;SDS011;37677;53.254;6.594;2022-09-01T02:56:42;3.78;;;1.80;;
51594;SDS011;37677;53.254;6.594;2022-09-01T02:59:12;2.53;;;1.90;;
51594;SDS011;37677;53.254;6.594;2022-09-01T03:01:42;2.25;;;1.67;;
51594;SDS011;37677;53.254;6.594;2022-09-01T03:04:11;2.88;;;1.75;;
51594;SDS011;37677;53.254;6.594;2022-09-01T03:06:38;3.22;;;2.03;;
51594;SDS011;37677;53.254;6.594;2022-09-01T03:09:08;3.10;;;1.70;;
51594;SDS011;37677;53.254;6.594;2022-09-01T03:11:38;3.50;;;1.90;;
51594;SDS011;37677;53.254;6.594;2022-09-01T03:14:05;2.22;;;1.60;;
51594;SDS011;37677;53.254;6.594;2022-09-01T03:16:32;2.42;;;1.60;;
51594;SDS011;37677;53.254;6.594;2022-09-01T03:18:58;4.75;;;1.77;;
51594;SDS011;37677;53.254;6.594;2022-09-01T03:21:27;2.78;;;1.70;;
51594;SDS011;37677;53.254;6.594;2022-09-01T03:23:53;4.78;;;1.75;;
51594;SDS011;37677;53.254;6.594;2022-09-01T03:26:19;2.85;;;1.70;;
51594;SDS011;37677;53.254;6.594;2022-09-01T03:28:47;3.97;;;1.60;;
51594;SDS011;37677;53.254;6.594;2022-09-01T03:31:14;3.47;;;2.00;;
51594;SDS011;37677;53.254;6.594;2022-09-01T03:33:42;2.20;;;1.85;;
51594;SDS011;37677;53.254;6.594;2022-09-01T03:36:08;2.20;;;1.50;;
51594;SDS011;37677;53.254;6.594;2022-09-01T03:38:43;2.03;;;1.83;;
51594;SDS011;37677;53.254;6.594;2022-09-01T03:41:19;1.98;;;1.60;;
51594;SDS011;37677;53.254;6.594;2022-09-01T03:43:46;2.20;;;1.73;;
51594;SDS011;37677;53.254;6.594;2022-09-01T03:46:13;3.60;;;2.20;;
51594;SDS011;37677;53.254;6.594;2022-09-01T03:48:44;2.45;;;1.83;;
51594;SDS011;37677;53.254;6.594;2022-09-01T03:51:11;1.73;;;1.40;;
51594;SDS011;37677;53.254;6.594;2022-09-01T03:53:38;2.10;;;1.77;;
51594;SDS011;37677;53.254;6.594;2022-09-01T03:56:04;3.80;;;1.77;;
51594;SDS011;37677;53.254;6.594;2022-09-01T03:58:31;2.45;;;1.90;;
51594;SDS011;37677;53.254;6.594;2022-09-01T04:00:57;2.75;;;1.83;;
51594;SDS011;37677;53.254;6.594;2022-09-01T04:03:26;3.42;;;1.80;;
51594;SDS011;37677;53.254;6.594;2022-09-01T04:05:55;2.95;;;1.92;;
51594;SDS011;37677;53.254;6.594;2022-09-01T04:08:22;2.53;;;1.90;;
51594;SDS011;37677;53.254;6.594;2022-09-01T04:10:52;2.85;;;1.75;;
51594;SDS011;37677;53.254;6.594;2022-09-01T04:13:18;2.47;;;1.80;;
51594;SDS011;37677;53.254;6.594;2022-09-01T04:15:58;2.72;;;1.80;;
51594;SDS011;37677;53.254;6.594;2022-09-01T04:18:23;3.90;;;1.90;;
51594;SDS011;37677;53.254;6.594;2022-09-01T04:20:56;2.65;;;2.00;;
51594;SDS011;37677;53.254;6.594;2022-09-01T04:23:27;5.15;;;1.80;;
51594;SDS011;37677;53.254;6.594;2022-09-01T04:25:59;2.70;;;2.30;;
51594;SDS011;37677;53.254;6.594;2022-09-01T04:28:44;4.30;;;2.28;;
51594;SDS011;37677;53.254;6.594;2022-09-01T04:31:12;3.75;;;2.25;;
51594;SDS011;37677;53.254;6.594;2022-09-01T04:33:43;2.88;;;2.05;;
51594;SDS011;37677;53.254;6.594;2022-09-01T04:36:18;3.38;;;2.30;;
51594;SDS011;37677;53.254;6.594;2022-09-01T04:38:56;5.00;;;2.40;;
51594;SDS011;37677;53.254;6.594;2022-09-01T04:41:25;6.03;;;2.60;;
51594;SDS011;37677;53.254;6.594;2022-09-01T04:43:55;2.90;;;2.53;;
51594;SDS011;37677;53.254;6.594;2022-09-01T04:46:27;4.85;;;3.45;;
51594;SDS011;37677;53.254;6.594;2022-09-01T04:48:57;3.35;;;2.88;;
51594;SDS011;37677;53.254;6.594;2022-09-01T04:51:24;3.20;;;2.90;;
51594;SDS011;37677;53.254;6.594;2022-09-01T04:53:52;3.70;;;2.58;;
51594;SDS011;37677;53.254;6.594;2022-09-01T04:56:21;6.55;;;2.53;;
51594;SDS011;37677;53.254;6.594;2022-09-01T04:58:49;3.30;;;2.65;;
51594;SDS011;37677;53.254;6.594;2022-09-01T05:01:17;3.70;;;2.40;;
51594;SDS011;37677;53.254;6.594;2022-09-01T05:03:44;2.97;;;2.65;;
51594;SDS011;37677;53.254;6.594;2022-09-01T05:06:14;3.28;;;2.63;;
51594;SDS011;37677;53.254;6.594;2022-09-01T05:08:41;2.45;;;2.25;;
51594;SDS011;37677;53.254;6.594;2022-09-01T05:11:10;3.28;;;2.75;;
51594;SDS011;37677;53.254;6.594;2022-09-01T05:13:37;4.75;;;2.40;;
51594;SDS011;37677;53.254;6.594;2022-09-01T05:16:07;3.30;;;2.28;;
51594;SDS011;37677;53.254;6.594;2022-09-01T05:18:40;3.05;;;2.70;;
51594;SDS011;37677;53.254;6.594;2022-09-01T05:21:11;3.47;;;2.67;;
51594;SDS011;37677;53.254;6.594;2022-09-01T05:23:40;4.43;;;2.47;;
51594;SDS011;37677;53.254;6.594;2022-09-01T05:26:11;3.38;;;2.50;;
51594;SDS011;37677;53.254;6.594;2022-09-01T05:28:41;4.63;;;2.65;;
51594;SDS011;37677;53.254;6.594;2022-09-01T05:31:14;4.38;;;2.70;;
51594;SDS011;37677;53.254;6.594;2022-09-01T05:33:43;4.50;;;2.80;;
51594;SDS011;37677;53.254;6.594;2022-09-01T05:36:12;4.05;;;2.30;;
51594;SDS011;37677;53.254;6.594;2022-09-01T05:38:40;4.57;;;2.35;;
51594;SDS011;37677;53.254;6.594;2022-09-01T05:41:07;4.25;;;2.45;;
51594;SDS011;37677;53.254;6.594;2022-09-01T05:43:35;7.85;;;2.60;;
51594;SDS011;37677;53.254;6.594;2022-09-01T05:46:05;6.10;;;2.65;;
51594;SDS011;37677;53.254;6.594;2022-09-01T05:48:32;3.80;;;3.33;;
51594;SDS011;37677;53.254;6.594;2022-09-01T05:51:04;2.90;;;2.58;;
51594;SDS011;37677;53.254;6.594;2022-09-01T05:53:31;3.38;;;2.75;;
51594;SDS011;37677;53.254;6.594;2022-09-01T05:55:58;4.47;;;2.70;;
51594;SDS011;37677;53.254;6.594;2022-09-01T05:58:31;4.57;;;2.88;;
51594;SDS011;37677;53.254;6.594;2022-09-01T06:00:59;3.92;;;2.60;;
51594;SDS011;37677;53.254;6.594;2022-09-01T06:03:25;4.97;;;2.35;;
51594;SDS011;37677;53.254;6.594;2022-09-01T06:05:52;6.75;;;2.53;;
51594;SDS011;37677;53.254;6.594;2022-09-01T06:08:23;3.15;;;2.50;;
51594;SDS011;37677;53.254;6.594;2022-09-01T06:10:50;5.28;;;2.63;;
51594;SDS011;37677;53.254;6.594;2022-09-01T06:13:16;3.00;;;2.55;;
51594;SDS011;37677;53.254;6.594;2022-09-01T06:15:49;3.40;;;2.58;;
51594;SDS011;37677;53.254;6.594;2022-09-01T06:18:18;2.95;;;2.50;;
51594;SDS011;37677;53.254;6.594;2022-09-01T06:20:46;3.55;;;2.22;;
51594;SDS011;37677;53.254;6.594;2022-09-01T06:23:14;4.70;;;2.90;;
51594;SDS011;37677;53.254;6.594;2022-09-01T06:25:42;3.47;;;2.40;;
51594;SDS011;37677;53.254;6.594;2022-09-01T06:28:17;3.88;;;2.42;;
51594;SDS011;37677;53.254;6.594;2022-09-01T06:30:48;2.95;;;2.25;;
51594;SDS011;37677;53.254;6.594;2022-09-01T06:33:15;4.15;;;2.42;;
51594;SDS011;37677;53.254;6.594;2022-09-01T06:35:41;6.22;;;2.47;;
51594;SDS011;37677;53.254;6.594;2022-09-01T06:38:11;6.85;;;2.53;;
51594;SDS011;37677;53.254;6.594;2022-09-01T06:40:39;4.95;;;2.25;;
51594;SDS011;37677;53.254;6.594;2022-09-01T06:43:07;3.90;;;2.60;;
51594;SDS011;37677;53.254;6.594;2022-09-01T06:45:38;3.03;;;2.50;;
51594;SDS011;37677;53.254;6.594;2022-09-01T06:48:06;5.13;;;2.90;;
51594;SDS011;37677;53.254;6.594;2022-09-01T06:50:33;3.17;;;2.33;;
51594;SDS011;37677;53.254;6.594;2022-09-01T06:52:59;7.90;;;2.40;;
51594;SDS011;37677;53.254;6.594;2022-09-01T06:55:43;2.45;;;1.95;;
51594;SDS011;37677;53.254;6.594;2022-09-01T06:58:12;5.40;;;2.08;;
51594;SDS011;37677;53.254;6.594;2022-09-01T07:00:40;6.05;;;2.47;;
51594;SDS011;37677;53.254;6.594;2022-09-01T07:03:10;7.70;;;2.08;;
51594;SDS011;37677;53.254;6.594;2022-09-01T07:05:41;2.22;;;1.95;;
51594;SDS011;37677;53.254;6.594;2022-09-01T07:08:10;2.08;;;1.63;;
51594;SDS011;37677;53.254;6.594;2022-09-01T07:10:41;4.00;;;1.98;;
51594;SDS011;37677;53.254;6.594;2022-09-01T07:13:09;2.85;;;1.73;;
51594;SDS011;37677;53.254;6.594;2022-09-01T07:15:44;3.35;;;1.80;;
51594;SDS011;37677;53.254;6.594;2022-09-01T07:18:15;2.83;;;1.67;;
51594;SDS011;37677;53.254;6.594;2022-09-01T07:20:42;5.32;;;2.00;;
51594;SDS011;37677;53.254;6.594;2022-09-01T07:23:08;4.65;;;1.80;;
51594;SDS011;37677;53.254;6.594;2022-09-01T07:25:39;2.70;;;1.80;;
51594;SDS011;37677;53.254;6.594;2022-09-01T07:28:07;2.55;;;1.65;;
51594;SDS011;37677;53.254;6.594;2022-09-01T07:30:38;4.72;;;2.20;;
51594;SDS011;37677;53.254;6.594;2022-09-01T07:35:36;3.70;;;1.70;;
51594;SDS011;37677;53.254;6.594;2022-09-01T07:38:03;5.13;;;2.40;;
51594;SDS011;37677;53.254;6.594;2022-09-01T07:40:32;4.60;;;1.73;;
51594;SDS011;37677;53.254;6.594;2022-09-01T07:43:02;3.50;;;1.80;;
51594;SDS011;37677;53.254;6.594;2022-09-01T07:45:33;3.78;;;1.80;;
51594;SDS011;37677;53.254;6.594;2022-09-01T07:48:02;3.05;;;1.85;;
51594;SDS011;37677;53.254;6.594;2022-09-01T07:50:31;4.43;;;1.85;;
51594;SDS011;37677;53.254;6.594;2022-09-01T07:52:58;5.47;;;1.90;;
51594;SDS011;37677;53.254;6.594;2022-09-01T07:55:26;6.68;;;2.42;;
51594;SDS011;37677;53.254;6.594;2022-09-01T07:57:52;2.97;;;2.00;;
51594;SDS011;37677;53.254;6.594;2022-09-01T08:00:19;2.58;;;1.90;;
51594;SDS011;37677;53.254;6.594;2022-09-01T08:02:46;3.78;;;2.10;;
51594;SDS011;37677;53.254;6.594;2022-09-01T08:05:15;5.32;;;2.20;;
51594;SDS011;37677;53.254;6.594;2022-09-01T08:07:46;4.35;;;2.20;;
51594;SDS011;37677;53.254;6.594;2022-09-01T08:10:13;9.10;;;2.10;;
51594;SDS011;37677;53.254;6.594;2022-09-01T08:12:39;6.55;;;2.20;;
51594;SDS011;37677;53.254;6.594;2022-09-01T08:15:06;2.55;;;1.60;;
51594;SDS011;37677;53.254;6.594;2022-09-01T08:17:33;3.10;;;2.00;;
51594;SDS011;37677;53.254;6.594;2022-09-01T08:20:00;4.03;;;1.92;;
51594;SDS011;37677;53.254;6.594;2022-09-01T08:22:27;3.35;;;1.60;;
51594;SDS011;37677;53.254;6.594;2022-09-01T08:24:53;4.05;;;2.25;;
51594;SDS011;37677;53.254;6.594;2022-09-01T08:27:19;6.68;;;2.10;;
51594;SDS011;37677;53.254;6.594;2022-09-01T08:29:45;4.00;;;2.30;;
51594;SDS011;37677;53.254;6.594;2022-09-01T08:32:10;4.50;;;2.00;;
51594;SDS011;37677;53.254;6.594;2022-09-01T08:34:37;3.75;;;2.05;;
51594;SDS011;37677;53.254;6.594;2022-09-01T08:37:03;3.15;;;2.00;;
51594;SDS011;37677;53.254;6.594;2022-09-01T08:39:29;8.50;;;1.92;;
51594;SDS011;37677;53.254;6.594;2022-09-01T08:45:30;3.35;;;1.88;;
51594;SDS011;37677;53.254;6.594;2022-09-01T08:48:01;3.75;;;2.05;;
51594;SDS011;37677;53.254;6.594;2022-09-01T08:50:37;2.83;;;1.65;;
51594;SDS011;37677;53.254;6.594;2022-09-01T08:53:04;7.38;;;2.03;;
51594;SDS011;37677;53.254;6.594;2022-09-01T08:55:41;3.60;;;1.98;;
51594;SDS011;37677;53.254;6.594;2022-09-01T08:58:09;6.65;;;1.80;;
51594;SDS011;37677;53.254;6.594;2022-09-01T09:00:53;5.75;;;1.77;;
51594;SDS011;37677;53.254;6.594;2022-09-01T09:03:42;2.85;;;1.50;;
51594;SDS011;37677;53.254;6.594;2022-09-01T09:09:01;7.38;;;2.17;;
51594;SDS011;37677;53.254;6.594;2022-09-01T09:16:45;3.63;;;1.77;;
51594;SDS011;37677;53.254;6.594;2022-09-01T09:24:31;3.25;;;1.80;;
51594;SDS011;37677;53.254;6.594;2022-09-01T09:30:26;5.03;;;1.85;;
51594;SDS011;37677;53.254;6.594;2022-09-01T09:32:57;3.60;;;1.98;;
51594;SDS011;37677;53.254;6.594;2022-09-01T09:35:32;4.30;;;1.70;;
51594;SDS011;37677;53.254;6.594;2022-09-01T09:38:34;5.03;;;1.92;;
51594;SDS011;37677;53.254;6.594;2022-09-01T09:43:48;4.82;;;1.52;;
51594;SDS011;37677;53.254;6.594;2022-09-01T09:46:23;1.00;;;0.90;;
51594;SDS011;37677;53.254;6.594;2022-09-01T09:49:09;2.83;;;1.30;;
51594;SDS011;37677;53.254;6.594;2022-09-01T09:51:46;1.70;;;1.10;;
51594;SDS011;37677;53.254;6.594;2022-09-01T09:56:40;2.90;;;0.98;;
51594;SDS011;37677;53.254;6.594;2022-09-01T09:59:22;1.75;;;0.90;;
51594;SDS011;37677;53.254;6.594;2022-09-01T10:01:55;3.80;;;1.23;;
51594;SDS011;37677;53.254;6.594;2022-09-01T10:04:38;2.55;;;1.10;;
51594;SDS011;37677;53.254;6.594;2022-09-01T10:09:48;2.17;;;1.00;;
51594;SDS011;37677;53.254;6.594;2022-09-01T10:12:15;2.05;;;0.90;;
51594;SDS011;37677;53.254;6.594;2022-09-01T10:14:41;1.23;;;0.90;;
51594;SDS011;37677;53.254;6.594;2022-09-01T10:17:15;3.45;;;0.85;;
51594;SDS011;37677;53.254;6.594;2022-09-01T10:19:59;0.80;;;0.77;;
51594;SDS011;37677;53.254;6.594;2022-09-01T10:22:32;1.30;;;0.75;;
51594;SDS011;37677;53.254;6.594;2022-09-01T10:24:59;3.25;;;1.42;;
51594;SDS011;37677;53.254;6.594;2022-09-01T10:27:30;3.67;;;1.08;;
51594;SDS011;37677;53.254;6.594;2022-09-01T10:30:12;2.00;;;1.05;;
51594;SDS011;37677;53.254;6.594;2022-09-01T10:32:58;0.98;;;0.77;;
51594;SDS011;37677;53.254;6.594;2022-09-01T10:35:32;1.75;;;1.17;;
51594;SDS011;37677;53.254;6.594;2022-09-01T10:38:34;3.72;;;1.10;;
51594;SDS011;37677;53.254;6.594;2022-09-01T10:40:54;2.65;;;1.00;;
51594;SDS011;37677;53.254;6.594;2022-09-01T10:48:47;1.40;;;1.10;;
51594;SDS011;37677;53.254;6.594;2022-09-01T10:53:56;2.67;;;0.85;;
51594;SDS011;37677;53.254;6.594;2022-09-01T11:04:23;1.70;;;0.85;;
51594;SDS011;37677;53.254;6.594;2022-09-01T11:07:28;2.97;;;0.95;;
51594;SDS011;37677;53.254;6.594;2022-09-01T11:15:41;1.50;;;1.00;;
51594;SDS011;37677;53.254;6.594;2022-09-01T11:18:14;2.88;;;0.93;;
51594;SDS011;37677;53.254;6.594;2022-09-01T11:20:51;1.27;;;0.95;;
51594;SDS011;37677;53.254;6.594;2022-09-01T11:23:22;3.22;;;0.90;;
51594;SDS011;37677;53.254;6.594;2022-09-01T11:26:03;1.75;;;1.00;;
51594;SDS011;37677;53.254;6.594;2022-09-01T11:31:24;2.33;;;1.02;;
51594;SDS011;37677;53.254;6.594;2022-09-01T11:33:52;2.58;;;1.20;;
51594;SDS011;37677;53.254;6.594;2022-09-01T11:44:24;2.15;;;0.80;;
51594;SDS011;37677;53.254;6.594;2022-09-01T11:46:57;4.97;;;1.00;;
51594;SDS011;37677;53.254;6.594;2022-09-01T11:49:33;5.20;;;1.17;;
51594;SDS011;37677;53.254;6.594;2022-09-01T11:52:03;1.88;;;1.10;;
51594;SDS011;37677;53.254;6.594;2022-09-01T11:54:36;1.05;;;0.82;;
51594;SDS011;37677;53.254;6.594;2022-09-01T11:57:21;2.22;;;0.90;;
51594;SDS011;37677;53.254;6.594;2022-09-01T11:59:58;1.33;;;0.93;;
51594;SDS011;37677;53.254;6.594;2022-09-01T12:02:29;2.25;;;0.88;;
51594;SDS011;37677;53.254;6.594;2022-09-01T12:04:57;3.60;;;1.05;;
51594;SDS011;37677;53.254;6.594;2022-09-01T12:07:42;1.30;;;0.90;;
51594;SDS011;37677;53.254;6.594;2022-09-01T12:12:42;1.75;;;1.00;;
51594;SDS011;37677;53.254;6.594;2022-09-01T12:15:10;1.15;;;1.00;;
51594;SDS011;37677;53.254;6.594;2022-09-01T12:17:41;1.90;;;1.10;;
51594;SDS011;37677;53.254;6.594;2022-09-01T12:20:27;1.75;;;1.20;;
51594;SDS011;37677;53.254;6.594;2022-09-01T12:22:57;1.13;;;0.95;;
51594;SDS011;37677;53.254;6.594;2022-09-01T12:28:03;2.22;;;1.00;;
51594;SDS011;37677;53.254;6.594;2022-09-01T12:30:32;1.00;;;0.93;;
51594;SDS011;37677;53.254;6.594;2022-09-01T12:33:05;1.40;;;1.10;;
51594;SDS011;37677;53.254;6.594;2022-09-01T12:35:32;6.07;;;1.08;;
51594;SDS011;37677;53.254;6.594;2022-09-01T12:40:52;1.13;;;0.90;;
51594;SDS011;37677;53.254;6.594;2022-09-01T12:43:35;1.95;;;1.00;;
51594;SDS011;37677;53.254;6.594;2022-09-01T12:46:04;1.50;;;1.08;;
51594;SDS011;37677;53.254;6.594;2022-09-01T12:48:37;5.78;;;0.93;;
51594;SDS011;37677;53.254;6.594;2022-09-01T12:51:18;1.65;;;1.00;;
51594;SDS011;37677;53.254;6.594;2022-09-01T12:53:51;5.20;;;1.05;;
51594;SDS011;37677;53.254;6.594;2022-09-01T12:56:25;2.50;;;1.30;;
51594;SDS011;37677;53.254;6.594;2022-09-01T12:59:02;4.28;;;1.00;;
51594;SDS011;37677;53.254;6.594;2022-09-01T13:01:30;5.70;;;1.10;;
51594;SDS011;37677;53.254;6.594;2022-09-01T13:06:48;1.80;;;1.08;;
51594;SDS011;37677;53.254;6.594;2022-09-01T13:09:15;1.35;;;0.90;;
51594;SDS011;37677;53.254;6.594;2022-09-01T13:11:41;3.53;;;1.30;;
51594;SDS011;37677;53.254;6.594;2022-09-01T13:14:08;5.25;;;0.90;;
51594;SDS011;37677;53.254;6.594;2022-09-01T13:16:34;0.98;;;0.85;;
51594;SDS011;37677;53.254;6.594;2022-09-01T13:19:01;4.63;;;1.25;;
51594;SDS011;37677;53.254;6.594;2022-09-01T13:21:29;2.88;;;0.90;;
51594;SDS011;37677;53.254;6.594;2022-09-01T13:23:56;2.30;;;1.00;;
51594;SDS011;37677;53.254;6.594;2022-09-01T13:26:22;4.82;;;0.90;;
51594;SDS011;37677;53.254;6.594;2022-09-01T13:28:48;2.63;;;0.93;;
51594;SDS011;37677;53.254;6.594;2022-09-01T13:31:14;1.55;;;0.90;;
51594;SDS011;37677;53.254;6.594;2022-09-01T13:33:40;2.58;;;1.08;;
51594;SDS011;37677;53.254;6.594;2022-09-01T13:36:06;2.65;;;0.80;;
51594;SDS011;37677;53.254;6.594;2022-09-01T13:38:32;3.65;;;0.90;;
51594;SDS011;37677;53.254;6.594;2022-09-01T13:40:58;6.78;;;1.00;;
51594;SDS011;37677;53.254;6.594;2022-09-01T13:43:25;3.13;;;0.90;;
51594;SDS011;37677;53.254;6.594;2022-09-01T13:45:51;1.33;;;1.08;;
51594;SDS011;37677;53.254;6.594;2022-09-01T13:48:19;2.50;;;1.10;;
51594;SDS011;37677;53.254;6.594;2022-09-01T13:50:46;3.40;;;0.98;;
51594;SDS011;37677;53.254;6.594;2022-09-01T13:53:19;3.78;;;1.08;;
51594;SDS011;37677;53.254;6.594;2022-09-01T13:55:46;3.35;;;1.10;;
51594;SDS011;37677;53.254;6.594;2022-09-01T13:58:13;6.65;;;1.23;;
51594;SDS011;37677;53.254;6.594;2022-09-01T14:00:40;2.88;;;0.80;;
51594;SDS011;37677;53.254;6.594;2022-09-01T14:03:16;1.23;;;0.90;;
51594;SDS011;37677;53.254;6.594;2022-09-01T14:05:46;1.23;;;0.82;;
51594;SDS011;37677;53.254;6.594;2022-09-01T14:08:13;0.90;;;0.80;;
51594;SDS011;37677;53.254;6.594;2022-09-01T14:10:42;1.92;;;1.08;;
51594;SDS011;37677;53.254;6.594;2022-09-01T14:13:09;4.80;;;1.02;;
51594;SDS011;37677;53.254;6.594;2022-09-01T14:15:36;3.40;;;1.20;;
51594;SDS011;37677;53.254;6.594;2022-09-01T14:18:02;3.97;;;1.00;;
51594;SDS011;37677;53.254;6.594;2022-09-01T14:20:30;2.47;;;1.10;;
51594;SDS011;37677;53.254;6.594;2022-09-01T14:22:59;3.50;;;1.00;;
51594;SDS011;37677;53.254;6.594;2022-09-01T14:25:30;2.38;;;0.90;;
51594;SDS011;37677;53.254;6.594;2022-09-01T14:27:57;3.95;;;1.00;;
51594;SDS011;37677;53.254;6.594;2022-09-01T14:30:25;2.28;;;1.00;;
51594;SDS011;37677;53.254;6.594;2022-09-01T14:32:51;2.13;;;1.08;;
51594;SDS011;37677;53.254;6.594;2022-09-01T14:35:19;5.43;;;1.13;;
51594;SDS011;37677;53.254;6.594;2022-09-01T14:37:48;1.80;;;0.90;;
51594;SDS011;37677;53.254;6.594;2022-09-01T14:40:15;1.10;;;0.80;;
51594;SDS011;37677;53.254;6.594;2022-09-01T14:42:42;3.25;;;1.23;;
51594;SDS011;37677;53.254;6.594;2022-09-01T14:45:10;5.45;;;0.95;;
51594;SDS011;37677;53.254;6.594;2022-09-01T14:47:37;3.00;;;1.05;;
51594;SDS011;37677;53.254;6.594;2022-09-01T14:50:03;3.42;;;0.90;;
51594;SDS011;37677;53.254;6.594;2022-09-01T14:52:31;1.00;;;0.90;;
51594;SDS011;37677;53.254;6.594;2022-09-01T14:54:58;3.17;;;0.93;;
51594;SDS011;37677;53.254;6.594;2022-09-01T14:57:24;1.63;;;0.95;;
51594;SDS011;37677;53.254;6.594;2022-09-01T14:59:49;1.83;;;1.00;;
51594;SDS011;37677;53.254;6.594;2022-09-01T15:02:15;2.70;;;1.10;;
51594;SDS011;37677;53.254;6.594;2022-09-01T15:04:41;1.33;;;0.98;;
51594;SDS011;37677;53.254;6.594;2022-09-01T15:07:07;2.50;;;0.80;;
51594;SDS011;37677;53.254;6.594;2022-09-01T15:09:33;3.17;;;1.00;;
51594;SDS011;37677;53.254;6.594;2022-09-01T15:12:00;1.90;;;0.90;;
51594;SDS011;37677;53.254;6.594;2022-09-01T15:14:30;2.42;;;0.82;;
51594;SDS011;37677;53.254;6.594;2022-09-01T15:16:56;8.00;;;2.13;;
51594;SDS011;37677;53.254;6.594;2022-09-01T15:19:22;2.55;;;1.00;;
51594;SDS011;37677;53.254;6.594;2022-09-01T15:21:49;5.95;;;1.00;;
51594;SDS011;37677;53.254;6.594;2022-09-01T15:24:15;2.10;;;0.98;;
51594;SDS011;37677;53.254;6.594;2022-09-01T15:26:42;3.60;;;1.00;;
51594;SDS011;37677;53.254;6.594;2022-09-01T15:29:10;3.47;;;1.25;;
51594;SDS011;37677;53.254;6.594;2022-09-01T15:31:39;2.70;;;1.05;;
51594;SDS011;37677;53.254;6.594;2022-09-01T15:34:07;4.45;;;1.38;;
51594;SDS011;37677;53.254;6.594;2022-09-01T15:36:36;1.70;;;0.90;;
51594;SDS011;37677;53.254;6.594;2022-09-01T15:39:04;2.60;;;1.20;;
51594;SDS011;37677;53.254;6.594;2022-09-01T15:41:30;3.35;;;1.10;;
51594;SDS011;37677;53.254;6.594;2022-09-01T15:43:58;1.10;;;0.90;;
51594;SDS011;37677;53.254;6.594;2022-09-01T15:46:24;3.55;;;1.00;;
51594;SDS011;37677;53.254;6.594;2022-09-01T15:49:00;3.22;;;1.05;;
51594;SDS011;37677;53.254;6.594;2022-09-01T15:53:57;3.15;;;0.90;;
51594;SDS011;37677;53.254;6.594;2022-09-01T15:56:28;4.97;;;1.52;;
51594;SDS011;37677;53.254;6.594;2022-09-01T15:58:56;7.35;;;1.50;;
51594;SDS011;37677;53.254;6.594;2022-09-01T16:01:23;2.00;;;1.15;;
51594;SDS011;37677;53.254;6.594;2022-09-01T16:03:50;3.13;;;1.13;;
51594;SDS011;37677;53.254;6.594;2022-09-01T16:06:17;2.00;;;1.10;;
51594;SDS011;37677;53.254;6.594;2022-09-01T16:08:42;4.85;;;1.20;;
51594;SDS011;37677;53.254;6.594;2022-09-01T16:11:09;2.05;;;1.15;;
51594;SDS011;37677;53.254;6.594;2022-09-01T16:13:36;4.05;;;1.10;;
51594;SDS011;37677;53.254;6.594;2022-09-01T16:18:55;2.45;;;0.90;;
51594;SDS011;37677;53.254;6.594;2022-09-01T16:21:29;1.00;;;0.82;;
51594;SDS011;37677;53.254;6.594;2022-09-01T16:24:03;1.00;;;0.80;;
51594;SDS011;37677;53.254;6.594;2022-09-01T16:26:32;3.70;;;1.05;;
51594;SDS011;37677;53.254;6.594;2022-09-01T16:28:59;3.63;;;1.10;;
51594;SDS011;37677;53.254;6.594;2022-09-01T16:31:31;2.10;;;0.90;;